Chehalis, WA

10:43 AM PDT on August 20, 2014 (GMT -0700)
Olympia | Change Station
CLOSE
Current Station
Airport
Location: Olympia,
Elevation: 200 ft
Nearby Weather Stations

Elev 200 ft 46.97 °N, 122.90 °W | Updated 49 minutes ago

Overcast
Overcast
62 °F
Feels Like 62 °F
N
7
Wind Variable Wind from Variable

Today
High -- | Low -- °F
--% Chance of Precip.
Yesterday
High -- | Low -- °F
Precip. -- in
6:16 AM 8:13 PM
Waning Crescent, 20% visible
Pressure 29.97 in
Visibility 10.0 miles
Clouds Mostly Cloudy 2600 ft
Overcast 3100 ft
Dew Point 51 °F
Humidity 67%
Rainfall 0.00 in
Snow Depth Not available.
UV 1 out of 12
Pollen 3.10 out of 12
PM2.5 Good
Flu Activity Not available.
METAR KOLM 201654Z VRB06KT 10SM BKN026 OVC031 17/11 A2997 RMK AO2 SLP149 T01670106

More Conditions Fewer Conditions

Pressure 29.97 in
Visibility 10.0 miles
Clouds Mostly Cloudy 2600 ft
Overcast 3100 ft
Dew Point 51 °F
Humidity 67%
Rainfall 0.00 in
Snow Depth Not available.
UV 1 out of 12
Pollen 3.10 out of 12
PM2.5 Good
Flu Activity Not available.
METAR KOLM 201654Z VRB06KT 10SM BKN026 OVC031 17/11 A2997 RMK AO2 SLP149 T01670106

More Conditions Fewer Conditions

10-Day Weather Forecast

Almanac

Astronomy

Aug. 20, 2014 Rise Set
Actual Time 6:16 AM PDT 8:13 PM PDT
Civil Twilight 5:44 AM PDT 8:45 PM PDT
Nautical Twilight 5:04 AM PDT 9:25 PM PDT
Astronomical Twilight 4:19 AM PDT 10:09 PM PDT
Moon 1:54 AM PDT 5:08 PM PDT
Length of Visible Light 15h 01m
Length of Day
13h 56m
Tomorrow will be 3m 3s shorter.
Waning Crescent, 20% of the Moon is Illuminated
Today
Waning Crescent
Aug 25
New
Sep 2
First Quarter
Sep 8
Full
Sep 15
Last Quarter

Today's Extremes

State Highs State Lows

Community

WunderPhotos

Upload Photos

1,745,699 photos uploaded!

WunderBlogs® & News

By Dr. Jeff Masters
Director of Meteorology, Weather Underground
By Kari Strenfel
Meteorologist, Weather Underground
By Christopher C. Burt
Weather Historian, Weather Underground
August 20, 2014
August 20, 2014
August 20, 2014

Nearby

Air Quality

  Air Quality AQ Index Pollutant
Yesterday Good
PM2.5
Current Good
PM2.5

Snow Depth

Station Depth Elevation
Spirit Lake 0 in 3120 ft
Swift Creek 0 in 3770 ft
June Lake 0 in 3340 ft
Lone Pine 0 in 3800 ft
Burnt Mountain 0 in 4200 ft

Earthquake Activity

City Distance Mag. Time & Date
No recent earthquake activity has been reported nearby.
Minimum magnitude displayed is 2.5.

Coastal Water Temperatures

Place Temperature
Port Townsend, WA 54.0 °F
Seattle, WA 57.0 °F
Friday Harbor, WA 55.0 °F
Tacoma, WA 55.9 °F

Nearby Weather Stations